Time;durP1;ratioP1;P1;durP2;ratioP2;P2;SDS_P1;SDS_P2;PMS_P1;PMS_P2;Temp;Humidity;BMP_temperature;BMP_pressure;BME280_temperature;BME280_humidity;BME280_pressure;Samples;Min_cycle;Max_cycle;Signal;HPM_P1;HPM_P2
2023/05/23 00:00:44;;;;;;;29.20;19.10;;;16.20;99.90;;;15.95;100.00;97040.78;5008656;28;20119;-36
2023/05/23 00:03:09;;;;;;;39.65;23.83;;;16.10;99.90;;;15.90;100.00;97036.69;5010126;28;20030;-37
2023/05/23 00:05:35;;;;;;;42.67;24.75;;;16.10;99.90;;;15.90;100.00;97044.66;5006911;28;20080;-38
2023/05/23 00:08:01;;;;;;;40.40;24.75;;;16.10;99.90;;;15.88;100.00;97044.78;5013367;28;20033;-35
2023/05/23 00:10:27;;;;;;;47.67;24.75;;;16.00;99.90;;;15.83;100.00;97053.03;5010540;28;20030;-36
2023/05/23 00:12:52;;;;;;;42.15;24.77;;;16.00;99.90;;;15.83;100.00;97049.53;5011069;28;20021;-37
2023/05/23 00:15:19;;;;;;;47.08;26.15;;;16.00;99.90;;;15.78;100.00;97041.84;5011916;28;20044;-37
2023/05/23 00:17:45;;;;;;;48.88;26.15;;;16.00;99.90;;;15.75;100.00;97044.69;5009211;28;21943;-37
2023/05/23 00:20:12;;;;;;;45.70;26.73;;;15.90;99.90;;;15.77;100.00;97052.56;5012120;28;20033;-37
2023/05/23 00:22:41;;;;;;;51.42;27.40;;;15.90;99.90;;;15.74;100.00;97039.44;5010057;28;20424;-36
2023/05/23 00:25:08;;;;;;;52.13;30.55;;;15.90;99.90;;;15.74;100.00;97043.00;5011717;28;20029;-36
2023/05/23 00:27:35;;;;;;;56.65;31.30;;;15.90;99.90;;;15.74;100.00;97043.00;5007456;28;20061;-37
2023/05/23 00:30:01;;;;;;;51.10;30.05;;;15.90;99.90;;;15.75;100.00;97044.69;5011707;28;20046;-36
2023/05/23 00:32:27;;;;;;;49.15;27.95;;;15.90;99.90;;;15.74;100.00;97043.00;5014154;28;20041;-36
2023/05/23 00:34:53;;;;;;;56.85;32.33;;;15.90;99.90;;;15.72;100.00;97049.31;5009802;28;20387;-37
2023/05/23 00:37:19;;;;;;;47.72;28.10;;;15.90;99.90;;;15.71;100.00;97056.44;5014613;28;20030;-36
2023/05/23 00:39:45;;;;;;;55.13;30.40;;;15.90;99.90;;;15.70;100.00;97049.41;5005526;28;20780;-36
2023/05/23 00:42:10;;;;;;;56.90;30.95;;;15.80;99.90;;;15.73;100.00;97051.88;5009775;28;20128;-36
2023/05/23 00:44:36;;;;;;;57.05;31.83;;;15.90;99.90;;;15.78;100.00;97055.13;5007052;28;20032;-38
2023/05/23 00:47:02;;;;;;;58.78;31.40;;;16.00;99.90;;;15.79;100.00;97058.63;5011115;28;20037;-36
2023/05/23 00:49:28;;;;;;;50.88;28.48;;;16.00;99.90;;;15.77;100.00;97050.78;5006256;28;20171;-36
2023/05/23 00:51:54;;;;;;;51.92;29.92;;;16.00;99.90;;;15.76;100.00;97059.69;5005884;28;22404;-36
2023/05/23 00:54:32;;;;;;;56.55;30.42;;;16.00;99.90;;;15.73;100.00;97070.47;4995898;28;20381;-36
2023/05/23 00:56:58;;;;;;;59.88;32.97;;;16.00;99.90;;;15.74;100.00;97074.91;5007742;28;20075;-36
2023/05/23 00:59:25;;;;;;;60.35;36.22;;;15.90;99.90;;;15.75;100.00;97070.41;5004126;28;20026;-37
2023/05/23 01:01:53;;;;;;;59.63;31.80;;;15.90;99.90;;;15.75;100.00;97073.94;5002824;28;20595;-36
2023/05/23 01:04:19;;;;;;;63.13;32.65;;;15.90;99.90;;;15.77;100.00;97072.06;5008658;28;20040;-36
2023/05/23 01:06:47;;;;;;;61.33;35.05;;;16.00;99.90;;;15.87;100.00;97077.63;5010441;28;20029;-36
2023/05/23 01:09:15;;;;;;;56.53;30.73;;;16.00;99.90;;;15.91;100.00;97079.13;5012597;28;20116;-37
2023/05/23 01:12:19;;;;;;;58.63;32.78;;;16.10;99.90;;;15.97;100.00;97078.75;5009336;28;20072;-36
2023/05/23 01:15:05;;;;;;;58.08;34.08;;;16.20;99.90;;;15.97;100.00;97069.91;5010351;28;20042;-36
2023/05/23 01:17:53;;;;;;;49.33;28.67;;;16.20;99.90;;;15.93;100.00;97074.56;5005720;28;20581;-37
2023/05/23 01:20:22;;;;;;;59.22;32.35;;;16.20;99.90;;;15.89;100.00;97075.72;5010682;28;20033;-38
2023/05/23 01:22:59;;;;;;;60.33;34.25;;;16.10;99.90;;;15.86;100.00;97077.72;5009276;28;21553;-37
2023/05/23 01:25:49;;;;;;;71.20;37.50;;;16.10;99.90;;;15.81;100.00;97075.38;5008160;28;20588;-37
2023/05/23 01:28:26;;;;;;;57.47;33.13;;;16.00;99.90;;;15.75;100.00;97073.94;5010585;28;20030;-37
2023/05/23 01:30:57;;;;;;;71.32;37.13;;;15.90;99.90;;;15.72;100.00;97076.78;5005098;28;20042;-37
2023/05/23 01:33:24;;;;;;;68.72;36.55;;;15.90;99.90;;;15.67;100.00;97076.19;5013770;28;20121;-37
2023/05/23 01:35:50;;;;;;;67.38;37.92;;;15.90;99.90;;;15.61;100.00;97076.56;5010541;28;20037;-37
2023/05/23 01:38:17;;;;;;;70.80;39.38;;;15.80;99.90;;;15.56;100.00;97078.66;5005446;28;20029;-37
2023/05/23 01:40:42;;;;;;;71.18;38.03;;;15.80;99.90;;;15.53;100.00;97078.88;5006986;28;20254;-37
2023/05/23 01:43:08;;;;;;;80.38;43.58;;;15.70;99.90;;;15.50;100.00;97077.22;5009743;28;20088;-38
2023/05/23 01:45:34;;;;;;;79.95;41.50;;;15.70;99.90;;;15.50;100.00;97079.88;5007413;28;20473;-37
2023/05/23 01:48:02;;;;;;;71.78;41.13;;;15.70;99.90;;;15.49;100.00;97082.63;5013193;28;20462;-38
2023/05/23 01:50:28;;;;;;;72.78;39.72;;;15.70;99.90;;;15.50;100.00;97082.53;5011379;28;20040;-37
2023/05/23 01:52:55;;;;;;;70.57;39.38;;;15.70;99.90;;;15.46;100.00;97087.19;5007706;28;21587;-37
2023/05/23 01:55:23;;;;;;;74.50;39.38;;;15.70;99.90;;;15.44;100.00;97086.44;5015151;28;20036;-37
2023/05/23 01:57:54;;;;;;;82.78;47.10;;;15.60;99.90;;;15.44;100.00;97082.94;5010073;28;20029;-37
2023/05/23 02:00:20;;;;;;;80.50;42.97;;;15.60;99.90;;;15.44;100.00;97094.41;5000803;28;20140;-37
2023/05/23 02:02:47;;;;;;;77.82;44.33;;;15.60;99.90;;;15.38;100.00;97084.19;5006454;28;20524;-37
2023/05/23 02:05:12;;;;;;;83.47;46.08;;;15.60;99.90;;;15.32;100.00;97075.72;5005207;28;20037;-37
2023/05/23 02:07:38;;;;;;;81.13;44.33;;;15.60;99.90;;;15.35;100.00;97094.97;5005566;28;20425;-37
2023/05/23 02:10:09;;;;;;;69.00;39.20;;;15.60;99.90;;;15.35;100.00;97094.97;5007756;28;20044;-37
2023/05/23 02:12:35;;;;;;;82.53;41.70;;;15.50;99.90;;;15.32;100.00;97084.53;5011297;28;20102;-37
2023/05/23 02:15:00;;;;;;;77.97;44.55;;;15.50;99.90;;;15.30;100.00;97089.09;5005825;28;20033;-37
2023/05/23 02:17:26;;;;;;;83.25;47.53;;;15.50;99.90;;;15.22;100.00;97078.09;5003850;28;20274;-38
2023/05/23 02:19:52;;;;;;;80.18;43.17;;;15.50;99.90;;;15.28;100.00;97086.53;5005151;28;20493;-37
2023/05/23 02:22:23;;;;;;;77.65;43.72;;;15.50;99.90;;;15.28;100.00;97093.66;5012236;28;20428;-38
2023/05/23 02:24:49;;;;;;;86.00;47.40;;;15.50;99.90;;;15.31;100.00;97088.16;5006001;28;20481;-38
2023/05/23 02:27:15;;;;;;;85.90;46.72;;;15.50;99.90;;;15.33;100.00;97090.72;5008231;28;20044;-37
2023/05/23 02:29:41;;;;;;;69.28;39.60;;;15.50;99.90;;;15.33;100.00;97090.72;5005564;28;20044;-37
2023/05/23 02:32:06;;;;;;;87.47;46.22;;;15.50;99.90;;;15.29;100.00;97076.78;5012413;28;20026;-37
2023/05/23 02:34:32;;;;;;;69.93;41.08;;;15.50;99.90;;;15.35;100.00;97092.31;5009676;28;20025;-37
2023/05/23 02:36:58;;;;;;;86.60;47.88;;;15.60;99.90;;;15.35;100.00;97092.31;5003900;28;20112;-37
2023/05/23 02:39:23;;;;;;;75.22;43.70;;;15.60;99.90;;;15.35;100.00;97094.13;5011268;28;20030;-37
2023/05/23 02:41:49;;;;;;;83.13;48.72;;;15.60;99.90;;;15.33;100.00;97091.56;5007202;28;20029;-37
2023/05/23 02:44:15;;;;;;;86.60;45.95;;;15.60;99.90;;;15.40;100.00;97100.88;4993544;28;20160;-37
2023/05/23 02:46:41;;;;;;;93.03;49.65;;;15.60;99.90;;;15.42;100.00;97100.78;5000525;28;20021;-38
2023/05/23 02:49:06;;;;;;;78.93;45.30;;;15.60;99.90;;;15.44;100.00;97093.56;5006485;28;20079;-37
2023/05/23 02:51:32;;;;;;;83.88;47.60;;;15.70;99.90;;;15.43;100.00;97098.03;5010808;28;20025;-37
2023/05/23 02:53:58;;;;;;;86.28;47.85;;;15.70;99.90;;;15.45;100.00;97098.78;5008849;28;20025;-37
2023/05/23 02:56:25;;;;;;;80.35;46.95;;;15.70;99.90;;;15.46;100.00;97100.47;5012192;28;20029;-37
2023/05/23 02:58:52;;;;;;;82.13;47.75;;;15.70;99.90;;;15.45;100.00;97098.78;5012170;28;20052;-38
2023/05/23 03:01:17;;;;;;;86.28;48.15;;;15.70;99.90;;;15.36;100.00;97088.72;5007439;28;20116;-37
2023/05/23 03:03:43;;;;;;;82.22;46.65;;;15.70;99.90;;;15.44;100.00;97105.03;5007627;28;20255;-38
2023/05/23 03:06:13;;;;;;;83.25;47.90;;;15.60;99.90;;;15.48;100.00;97105.72;5006261;28;20040;-37
2023/05/23 03:08:39;;;;;;;82.20;46.65;;;15.70;99.90;;;15.46;100.00;97108.47;5001372;28;20038;-37
2023/05/23 03:11:05;;;;;;;82.90;46.67;;;15.70;99.90;;;15.49;100.00;97104.78;5004367;28;20042;-37
2023/05/23 03:13:30;;;;;;;80.00;47.70;;;15.70;99.90;;;15.52;100.00;97112.53;5006229;28;20033;-38
2023/05/23 03:15:56;;;;;;;84.75;45.28;;;15.70;99.90;;;15.57;100.00;97114.91;4995122;28;20549;-38
2023/05/23 03:18:22;;;;;;;72.57;43.92;;;15.70;99.90;;;15.59;100.00;97113.88;5003250;28;20095;-37
2023/05/23 03:20:47;;;;;;;70.97;43.83;;;15.80;99.90;;;15.61;100.00;97119.09;5002241;28;20212;-38
2023/05/23 03:23:13;;;;;;;77.63;42.97;;;15.80;99.90;;;15.51;100.00;97094.91;5009443;28;20340;-38
2023/05/23 03:25:39;;;;;;;86.82;48.85;;;15.90;99.90;;;15.67;100.00;97116.06;5002535;28;20033;-37
2023/05/23 03:28:05;;;;;;;82.43;48.15;;;15.90;99.90;;;15.68;100.00;97117.75;5012616;28;20057;-37
2023/05/23 03:30:30;;;;;;;67.15;40.72;;;15.90;99.90;;;15.70;100.00;97117.66;5004829;28;20156;-37
2023/05/23 03:32:56;;;;;;;74.90;43.17;;;15.90;99.90;;;15.72;100.00;97131.72;5003414;28;20037;-37
2023/05/23 03:35:22;;;;;;;77.70;44.22;;;15.90;99.90;;;15.73;100.00;97122.81;5008797;28;20043;-37
2023/05/23 03:37:47;;;;;;;73.15;43.35;;;16.00;99.90;;;15.74;100.00;97128.06;5001905;28;20031;-38
2023/05/23 03:40:13;;;;;;;70.05;42.83;;;16.00;99.90;;;15.77;100.00;97129.66;5012101;28;20548;-38
2023/05/23 03:42:39;;;;;;;68.40;41.38;;;16.00;99.90;;;15.74;100.00;97120.09;5007683;28;20230;-39
2023/05/23 03:45:05;;;;;;;69.53;42.60;;;16.00;99.90;;;15.75;100.00;97120.94;5005595;28;20013;-37
2023/05/23 03:47:31;;;;;;;69.95;43.03;;;16.00;99.90;;;15.76;100.00;97125.31;5009659;28;20371;-38
2023/05/23 03:49:57;;;;;;;73.70;44.75;;;16.00;99.90;;;15.74;100.00;97121.84;5011630;28;20031;-38
2023/05/23 03:52:22;;;;;;;66.30;39.83;;;16.00;99.90;;;15.74;100.00;97120.09;5012731;28;20017;-38
2023/05/23 03:54:48;;;;;;;66.32;40.40;;;16.00;99.90;;;15.71;100.00;97112.25;5009596;28;20481;-37
2023/05/23 03:57:14;;;;;;;68.13;40.95;;;16.00;99.90;;;15.77;100.00;97124.34;5017189;28;20021;-37
2023/05/23 03:59:40;;;;;;;72.63;42.47;;;16.00;99.90;;;15.75;100.00;97124.44;5006058;28;20061;-37
2023/05/23 04:02:05;;;;;;;64.88;39.38;;;16.00;99.90;;;15.75;100.00;97120.94;5011334;28;20393;-35
2023/05/23 04:04:31;;;;;;;71.03;43.97;;;16.00;99.90;;;15.74;100.00;97125.41;5008912;28;20037;-36
2023/05/23 04:06:58;;;;;;;59.33;38.63;;;16.00;99.90;;;15.69;100.00;97108.00;5010673;28;20041;-36
2023/05/23 04:09:23;;;;;;;61.03;37.75;;;16.00;99.90;;;15.73;100.00;97117.50;5011111;28;20038;-36
2023/05/23 04:11:50;;;;;;;63.70;40.80;;;16.00;99.90;;;15.76;100.00;97123.50;5005515;28;20033;-36
2023/05/23 04:14:16;;;;;;;62.45;37.60;;;16.00;99.90;;;15.80;100.00;97133.00;5003659;28;20490;-36
2023/05/23 04:16:43;;;;;;;63.85;37.90;;;16.00;99.90;;;15.82;100.00;97130.25;4999373;28;20120;-36
2023/05/23 04:19:09;;;;;;;64.05;40.05;;;16.00;99.90;;;15.83;100.00;97138.13;5009987;28;20049;-36
2023/05/23 04:21:34;;;;;;;58.83;36.08;;;16.00;99.90;;;15.86;100.00;97133.56;5006633;28;20084;-36
2023/05/23 04:24:01;;;;;;;62.88;38.55;;;16.10;99.90;;;15.81;100.00;97125.88;5010281;28;20032;-36
2023/05/23 04:26:27;;;;;;;63.08;40.33;;;16.10;99.90;;;15.86;100.00;97142.38;5007217;28;20045;-37
2023/05/23 04:28:53;;;;;;;66.43;39.55;;;16.10;99.90;;;15.87;100.00;97135.28;5008460;28;20043;-37
2023/05/23 04:31:22;;;;;;;58.25;36.22;;;16.10;99.90;;;15.89;100.00;97138.69;5010434;28;20041;-37
2023/05/23 04:33:48;;;;;;;58.47;36.92;;;16.10;99.90;;;15.90;100.00;97143.03;5007049;28;20228;-37
2023/05/23 04:36:14;;;;;;;58.60;36.30;;;16.10;99.90;;;15.93;100.00;97137.53;5012657;28;20484;-37
2023/05/23 04:38:41;;;;;;;57.75;37.22;;;16.10;99.90;;;15.93;100.00;97142.88;5019367;28;20026;-37
2023/05/23 04:41:12;;;;;;;53.97;32.90;;;16.20;99.90;;;15.95;100.00;97146.28;5013951;28;20037;-37
2023/05/23 04:43:41;;;;;;;54.38;33.80;;;16.20;99.90;;;15.98;100.00;97151.41;5008019;28;20456;-38
2023/05/23 04:46:09;;;;;;;55.08;38.92;;;16.20;99.90;;;15.98;100.00;97156.72;5013653;28;20601;-38
2023/05/23 04:48:36;;;;;;;49.80;33.22;;;16.20;99.90;;;15.99;100.00;97153.13;5012337;28;20091;-39
2023/05/23 04:51:05;;;;;;;46.47;31.92;;;16.20;99.90;;;16.05;100.00;97162.53;5011983;28;20033;-39
2023/05/23 04:53:31;;;;;;;55.10;35.17;;;16.30;99.90;;;16.08;100.00;97164.97;5012880;28;20037;-39
2023/05/23 04:55:56;;;;;;;54.70;34.95;;;16.30;99.90;;;16.12;100.00;97163.84;5006560;28;20065;-39
2023/05/23 04:58:22;;;;;;;51.65;33.47;;;16.30;99.90;;;16.13;100.00;97160.22;5008347;28;20022;-40
2023/05/23 05:00:48;;;;;;;51.45;32.30;;;16.40;99.90;;;16.18;100.00;97174.09;4996042;28;20045;-40
2023/05/23 05:03:14;;;;;;;57.92;38.47;;;16.40;99.90;;;16.20;100.00;97165.06;5011665;28;20195;-39
2023/05/23 05:05:40;;;;;;;53.20;34.53;;;16.40;99.90;;;16.27;100.00;97168.19;5010607;28;20519;-40
2023/05/23 05:08:06;;;;;;;53.80;34.85;;;16.50;99.90;;;16.32;100.00;97171.41;5009293;28;20041;-39
2023/05/23 05:10:32;;;;;;;45.20;30.27;;;16.50;99.90;;;16.38;100.00;97172.81;5014320;28;20415;-39
2023/05/23 05:12:57;;;;;;;57.88;34.30;;;16.60;99.90;;;16.41;100.00;97176.13;5000126;28;20165;-41
2023/05/23 05:15:23;;;;;;;44.20;32.67;;;16.60;99.90;;;16.44;100.00;97175.09;4999169;28;20029;-39
2023/05/23 05:17:49;;;;;;;47.17;27.73;;;16.70;99.90;;;16.49;100.00;97178.34;5006741;28;20030;-39
2023/05/23 05:20:16;;;;;;;51.40;33.33;;;16.70;99.90;;;16.52;100.00;97178.09;5005372;28;20080;-40
2023/05/23 05:22:42;;;;;;;43.05;29.95;;;16.70;99.90;;;16.55;100.00;97180.59;5008299;28;20543;-41
2023/05/23 05:25:09;;;;;;;45.28;33.08;;;16.80;99.90;;;16.53;100.00;97177.16;5010403;28;20049;-41
2023/05/23 05:27:36;;;;;;;45.22;32.70;;;16.80;99.90;;;16.56;100.00;97187.63;5005284;28;20481;-42
2023/05/23 05:30:07;;;;;;;45.65;31.83;;;16.80;99.90;;;16.56;100.00;97190.28;5015789;28;20398;-40
2023/05/23 05:32:33;;;;;;;48.55;31.63;;;16.80;99.90;;;16.56;100.00;97190.28;5018190;28;20033;-40
2023/05/23 05:34:59;;;;;;;48.13;31.65;;;16.80;99.90;;;16.53;100.00;97190.47;5016213;28;20034;-41
2023/05/23 05:37:25;;;;;;;49.40;31.58;;;16.80;99.90;;;16.54;100.00;97188.66;5022502;28;20108;-40
2023/05/23 05:39:53;;;;;;;53.15;35.60;;;16.70;99.90;;;16.51;100.00;97189.72;5020390;28;20044;-39
2023/05/23 05:42:22;;;;;;;51.75;37.40;;;16.70;99.90;;;16.45;100.00;97189.25;5017126;28;20029;-37
2023/05/23 05:44:48;;;;;;;45.95;31.48;;;16.70;99.90;;;16.51;100.00;97188.84;5021175;28;20060;-37
2023/05/23 05:47:14;;;;;;;44.25;30.73;;;16.70;99.90;;;16.57;100.00;97185.81;5019062;28;20409;-38
2023/05/23 05:49:40;;;;;;;42.63;30.52;;;16.80;99.90;;;16.60;100.00;97186.47;5019873;28;20279;-37
2023/05/23 05:52:07;;;;;;;51.45;34.78;;;16.80;99.90;;;16.62;100.00;97194.34;5020121;28;20040;-37
2023/05/23 05:54:33;;;;;;;49.13;35.28;;;16.90;99.90;;;16.53;100.00;97177.16;5026630;28;20113;-37
2023/05/23 05:56:59;;;;;;;52.47;36.50;;;16.90;99.90;;;16.69;100.00;97200.13;5019145;28;20108;-37
2023/05/23 05:59:24;;;;;;;44.70;33.25;;;17.00;99.90;;;16.72;100.00;97192.78;5019336;28;20018;-38
2023/05/23 06:01:51;;;;;;;44.22;32.90;;;17.00;99.90;;;16.80;100.00;97202.97;5018587;28;20122;-37
2023/05/23 06:04:17;;;;;;;40.25;31.02;;;17.00;99.90;;;16.82;100.00;97203.72;5022069;28;20332;-38
2023/05/23 06:06:43;;;;;;;54.67;38.03;;;17.10;99.90;;;16.76;100.00;97198.75;5017803;28;20025;-38
2023/05/23 06:09:09;;;;;;;51.97;34.15;;;17.10;99.90;;;16.67;100.00;97189.59;5021802;28;20072;-38
2023/05/23 06:11:39;;;;;;;45.63;33.38;;;17.00;99.90;;;16.71;100.00;97196.41;5019927;28;20083;-39
2023/05/23 06:14:05;;;;;;;47.97;34.30;;;17.00;99.90;;;16.72;100.00;97200.78;5019223;28;20033;-37
2023/05/23 06:16:31;;;;;;;48.97;35.60;;;17.00;99.90;;;16.77;100.00;97197.81;5020513;28;20385;-37
2023/05/23 06:18:57;;;;;;;47.40;33.30;;;17.00;99.90;;;16.87;100.00;97203.44;5013456;28;20025;-37
2023/05/23 06:21:22;;;;;;;46.40;33.60;;;17.10;99.90;;;16.94;100.00;97202.06;5020687;28;20087;-37
2023/05/23 06:23:48;;;;;;;49.45;35.28;;;17.20;99.90;;;17.03;100.00;97208.59;5019301;28;20037;-38
2023/05/23 06:26:14;;;;;;;47.50;35.30;;;17.30;99.90;;;17.06;100.00;97205.75;5020089;28;20441;-37
2023/05/23 06:28:39;;;;;;;45.17;33.05;;;17.30;99.90;;;17.09;100.00;97209.06;5014270;28;20034;-37
2023/05/23 06:31:05;;;;;;;49.38;35.58;;;17.40;99.90;;;16.94;100.00;97197.63;5017641;28;20622;-38
2023/05/23 06:33:34;;;;;;;47.05;34.40;;;17.30;99.90;;;17.01;100.00;97207.84;5020372;28;20042;-38
2023/05/23 06:36:00;;;;;;;50.72;35.92;;;17.30;99.90;;;17.00;100.00;97219.47;5020358;28;20024;-38
2023/05/23 06:38:28;;;;;;;44.85;33.17;;;17.30;99.90;;;17.04;100.00;97220.97;5016798;28;20381;-37
2023/05/23 06:40:54;;;;;;;39.03;29.48;;;17.30;99.90;;;17.04;100.00;97219.16;5016385;28;20669;-38
2023/05/23 06:43:20;;;;;;;48.30;33.53;;;17.30;99.90;;;16.98;100.00;97231.09;5017808;28;20029;-38
2023/05/23 06:45:46;;;;;;;48.65;34.22;;;17.20;99.90;;;16.90;100.00;97241.38;5016584;28;20090;-37
2023/05/23 06:48:12;;;;;;;39.47;29.52;;;17.20;99.90;;;16.86;100.00;97231.03;5014560;28;20095;-37
2023/05/23 06:50:38;;;;;;;45.28;31.45;;;17.10;99.90;;;16.75;100.00;97234.34;5019428;28;20069;-37
2023/05/23 06:53:05;;;;;;;40.05;30.77;;;17.00;99.90;;;16.64;100.00;97244.84;5019375;28;20036;-37
2023/05/23 06:55:32;;;;;;;45.22;31.80;;;16.90;99.90;;;16.60;100.00;97247.69;5016071;28;20083;-37
2023/05/23 06:58:02;;;;;;;54.15;35.95;;;16.90;99.90;;;16.49;100.00;97246.66;5015475;28;20021;-37
2023/05/23 07:00:30;;;;;;;49.13;33.25;;;16.80;99.90;;;16.40;100.00;97242.78;5013977;28;20029;-37
2023/05/23 07:02:59;;;;;;;46.78;31.95;;;16.70;99.90;;;16.39;100.00;97254.38;5019060;28;20030;-37
2023/05/23 07:05:27;;;;;;;43.00;32.25;;;16.60;99.90;;;16.36;100.00;97260.75;5015855;28;20382;-39
2023/05/23 07:07:53;;;;;;;41.85;32.22;;;16.60;99.90;;;16.33;100.00;97258.28;5015901;28;20187;-37
2023/05/23 07:10:19;;;;;;;44.65;31.67;;;16.60;99.90;;;16.32;100.00;97261.03;5020645;28;20029;-37
2023/05/23 07:12:46;;;;;;;40.30;30.50;;;16.60;99.90;;;16.29;100.00;97267.38;5015263;28;20508;-39
2023/05/23 07:15:13;;;;;;;41.28;31.67;;;16.50;99.90;;;16.26;100.00;97261.41;5018523;28;20029;-37
2023/05/23 07:17:39;;;;;;;42.08;30.17;;;16.50;99.90;;;16.25;100.00;97268.53;5018656;28;20025;-37
2023/05/23 07:20:07;;;;;;;40.40;30.40;;;16.50;99.90;;;16.24;100.00;97261.53;5020893;28;20118;-37
2023/05/23 07:22:32;;;;;;;45.13;30.60;;;16.50;99.90;;;16.18;100.00;97275.19;5017056;28;20037;-37
2023/05/23 07:24:58;;;;;;;38.00;28.08;;;16.50;99.90;;;16.11;100.00;97266.72;5016327;28;20385;-37
2023/05/23 07:27:25;;;;;;;35.90;28.55;;;16.40;99.90;;;16.17;100.00;97276.16;5017465;28;20018;-37
2023/05/23 07:29:51;;;;;;;35.42;25.90;;;16.40;99.90;;;16.16;100.00;97272.63;5015628;28;20037;-37
2023/05/23 07:32:17;;;;;;;32.95;24.30;;;16.40;99.90;;;16.17;100.00;97268.19;5020327;28;20040;-37
2023/05/23 07:34:43;;;;;;;35.53;25.00;;;16.40;99.90;;;16.19;100.00;97271.59;5016455;28;20033;-37
2023/05/23 07:37:08;;;;;;;34.35;26.00;;;16.50;99.90;;;16.19;100.00;97275.09;5020707;28;20025;-38
2023/05/23 07:39:34;;;;;;;33.05;25.27;;;16.50;99.90;;;16.22;100.00;97282.91;5019888;28;20033;-39
2023/05/23 07:42:00;;;;;;;34.83;27.05;;;16.50;99.90;;;16.17;100.00;97270.84;5016525;28;20083;-37
2023/05/23 07:44:27;;;;;;;36.70;27.27;;;16.50;99.90;;;16.22;100.00;97293.53;5017792;28;20505;-37
2023/05/23 07:46:53;;;;;;;32.15;26.08;;;16.50;99.90;;;16.17;100.00;97278.81;5013156;28;20559;-37
2023/05/23 07:49:18;;;;;;;34.90;26.13;;;16.50;99.90;;;16.09;100.00;97276.59;5015500;28;20065;-37
2023/05/23 07:51:44;;;;;;;40.80;28.55;;;16.40;99.90;;;16.19;100.00;97276.91;5012679;28;20117;-37
2023/05/23 07:54:10;;;;;;;37.13;28.42;;;16.50;99.90;;;16.27;100.00;97282.59;5019585;28;20091;-37
2023/05/23 07:56:37;;;;;;;33.40;25.55;;;16.60;99.90;;;16.46;100.00;97287.66;5017410;28;20069;-37
2023/05/23 07:59:03;;;;;;;30.33;24.67;;;16.80;99.90;;;16.61;100.00;97280.50;5017304;28;20316;-37
2023/05/23 08:01:29;;;;;;;29.20;23.90;;;16.90;99.90;;;16.57;100.00;97293.16;5015679;28;20176;-37
2023/05/23 08:03:55;;;;;;;30.50;21.98;;;17.00;99.90;;;16.54;100.00;97292.47;5013999;28;20034;-37
2023/05/23 08:06:20;;;;;;;25.05;20.42;;;17.00;99.90;;;16.57;100.00;97300.28;5017388;28;20124;-37
2023/05/23 08:08:46;;;;;;;26.20;20.27;;;17.00;99.90;;;16.51;100.00;97298.88;5016637;28;20044;-37
2023/05/23 08:11:13;;;;;;;28.75;20.85;;;17.00;99.90;;;16.42;100.00;97289.66;5018188;28;20069;-37
2023/05/23 08:13:39;;;;;;;25.45;19.08;;;16.90;99.90;;;16.44;100.00;97294.88;5016178;28;20029;-37
2023/05/23 08:16:05;;;;;;;23.48;18.90;;;16.80;99.90;;;16.41;100.00;97303.03;5017644;28;20076;-37
2023/05/23 08:18:30;;;;;;;22.73;16.42;;;16.70;99.90;;;16.42;100.00;97308.28;5016885;28;20493;-37
2023/05/23 08:20:56;;;;;;;24.50;18.15;;;16.70;99.90;;;16.35;100.00;97314.09;5013437;28;20029;-37
2023/05/23 08:23:22;;;;;;;24.50;19.50;;;16.60;99.90;;;16.24;100.00;97309.41;5018379;28;20029;-37
2023/05/23 08:25:47;;;;;;;22.85;18.85;;;16.50;99.90;;;16.17;100.00;97316.91;5015159;28;20040;-37
2023/05/23 08:28:13;;;;;;;23.38;18.40;;;16.50;99.90;;;16.09;100.00;97305.88;5017134;28;20473;-37
2023/05/23 08:30:39;;;;;;;26.33;19.65;;;16.50;99.90;;;15.98;100.00;97311.84;5014102;28;20356;-37
2023/05/23 08:33:05;;;;;;;26.50;17.75;;;16.40;99.90;;;15.97;100.00;97319.91;5017602;28;20025;-37
2023/05/23 08:35:35;;;;;;;25.02;18.10;;;16.30;99.90;;;15.99;100.00;97326.00;5017602;28;20032;-37
2023/05/23 08:38:03;;;;;;;25.52;18.65;;;16.30;99.90;;;15.87;100.00;97314.28;5014562;28;20500;-38
2023/05/23 08:40:31;;;;;;;25.77;20.52;;;16.30;99.90;;;15.87;100.00;97326.75;5014464;28;20290;-37
2023/05/23 08:42:57;;;;;;;25.60;18.27;;;16.30;99.90;;;15.90;100.00;97321.22;5012982;28;20026;-37
2023/05/23 08:45:23;;;;;;;23.55;17.35;;;16.30;99.90;;;15.98;100.00;97327.78;5018484;28;20045;-37
2023/05/23 08:47:51;;;;;;;24.10;18.23;;;16.30;99.90;;;15.96;100.00;97329.69;5012715;28;20041;-38
2023/05/23 08:50:17;;;;;;;22.40;16.75;;;16.30;99.90;;;16.00;100.00;97330.38;5016486;28;20037;-37
2023/05/23 08:52:57;;;;;;;25.02;16.35;;;16.30;99.90;;;16.05;100.00;97332.75;5015578;28;20060;-35
2023/05/23 08:55:26;;;;;;;24.83;18.27;;;16.40;99.90;;;16.03;100.00;97340.84;5018702;28;20030;-35
2023/05/23 08:58:02;;;;;;;20.38;15.32;;;16.40;99.90;;;15.97;100.00;97333.19;5011087;28;20068;-36
2023/05/23 09:00:28;;;;;;;21.50;15.65;;;16.40;99.90;;;16.05;100.00;97352.22;5015116;28;20444;-36
2023/05/23 09:02:55;;;;;;;21.85;17.35;;;16.40;99.90;;;16.02;100.00;97336.44;5015727;28;20143;-35
2023/05/23 09:05:21;;;;;;;22.80;17.08;;;16.40;99.90;;;16.03;100.00;97340.84;5018037;28;20481;-35
2023/05/23 09:07:48;;;;;;;22.33;16.05;;;16.40;99.90;;;16.09;100.00;97356.41;5015056;28;20088;-35
2023/05/23 09:10:18;;;;;;;23.40;18.67;;;16.40;99.90;;;15.96;100.00;97366.94;5013720;28;20071;-35
2023/05/23 09:12:44;;;;;;;23.15;17.35;;;16.40;99.90;;;15.96;100.00;97360.75;5016486;28;20124;-35
2023/05/23 09:15:11;;;;;;;17.55;15.38;;;16.30;99.90;;;16.00;100.00;97357.81;5016254;28;20033;-35
2023/05/23 09:17:37;;;;;;;20.63;16.52;;;16.30;99.90;;;16.04;100.00;97355.81;5016701;28;20060;-36
2023/05/23 09:20:10;;;;;;;18.88;15.65;;;16.40;99.90;;;16.12;100.00;97360.72;5013596;28;21477;-35
2023/05/23 09:22:36;;;;;;;22.02;16.20;;;16.40;99.90;;;16.12;100.00;97364.22;5016260;28;20030;-35
2023/05/23 09:25:02;;;;;;;19.85;16.13;;;16.40;99.90;;;16.07;100.00;97354.81;5019212;28;20095;-36
2023/05/23 09:27:28;;;;;;;19.45;14.82;;;16.40;99.90;;;16.10;100.00;97368.78;5018177;28;20033;-36
2023/05/23 09:29:53;;;;;;;17.80;14.80;;;16.40;99.90;;;16.05;100.00;97364.69;5016821;28;20041;-35
2023/05/23 09:32:20;;;;;;;18.42;13.88;;;16.40;99.90;;;16.09;100.00;97360.88;5018654;28;20029;-35
2023/05/23 09:34:58;;;;;;;15.93;13.13;;;16.40;99.90;;;16.19;100.00;97367.38;5018221;28;20073;-36
2023/05/23 09:37:33;;;;;;;18.80;14.70;;;16.50;99.90;;;16.20;100.00;97367.28;5017437;28;20216;-36
2023/05/23 09:40:01;;;;;;;17.63;12.93;;;16.50;99.90;;;16.36;100.00;97363.69;5019537;28;20223;-35
2023/05/23 09:42:33;;;;;;;17.52;12.95;;;16.70;99.90;;;16.61;100.00;97371.88;5019186;28;20036;-35
2023/05/23 09:44:59;;;;;;;19.95;12.68;;;16.90;99.90;;;16.77;100.00;97350.47;5010988;28;20120;-35
2023/05/23 09:47:28;;;;;;;17.58;12.63;;;17.20;99.90;;;16.98;100.00;97374.09;5018605;28;20033;-36
2023/05/23 09:49:54;;;;;;;14.68;11.77;;;17.30;99.90;;;17.11;100.00;97371.50;5014530;28;20387;-36
2023/05/23 09:52:20;;;;;;;15.65;12.25;;;17.50;99.90;;;17.20;100.00;97376.22;5019701;28;20056;-36
2023/05/23 09:54:46;;;;;;;14.20;11.15;;;17.50;99.90;;;17.20;100.00;97360.25;5020381;28;20482;-36
2023/05/23 09:57:15;;;;;;;15.05;11.18;;;17.50;99.90;;;17.27;100.00;97372.22;5020063;28;20030;-35
2023/05/23 09:59:52;;;;;;;16.30;11.82;;;17.60;99.90;;;17.33;100.00;97371.81;5018013;28;20306;-35